Coos Bay, OR (97420)

10:18 AM PDT on August 28, 2014 (GMT -0700)
Marshfield High School | Change Station
CLOSE
Current Station
Personal Weather Station
Location: Coos Bay, OR
Elevation: 100 ft
Nearby Weather Stations

Elev 100 ft 43.36 °N, 124.22 °W | Updated 7 seconds ago

Overcast
Overcast
61.7 °F
Feels Like 61.7 °F
N
0.0
Wind Variable Wind from NNW
Gusts 3.0 mph

Today
High -- | Low -- °F
--% Chance of Precip.
Yesterday
High -- | Low -- °F
Precip. -- in
6:36 AM 7:58 PM
Waxing Crescent, 9% visible
Pressure 30.14 in
Visibility 5.0 miles
Clouds Overcast 300 ft
Dew Point 60 °F
Humidity 96%
Rainfall 0.00 in
Snow Depth Not available.
UV 1 out of 12
Pollen 3.50 out of 12
Air Quality Not available.
Flu Activity Not available.
METAR KOTH 281655Z 27003KT 5SM OVC003 14/14 A3014 RMK AO1

More Conditions Fewer Conditions

Pressure 30.14 in
Visibility 5.0 miles
Clouds Overcast 300 ft
Dew Point 60 °F
Humidity 96%
Rainfall 0.00 in
Snow Depth Not available.
UV 1 out of 12
Pollen 3.50 out of 12
Air Quality Not available.
Flu Activity Not available.
METAR KOTH 281655Z 27003KT 5SM OVC003 14/14 A3014 RMK AO1

More Conditions Fewer Conditions

10-Day Weather Forecast

Almanac

Astronomy

Aug. 28, 2014 Rise Set
Actual Time 6:36 AM PDT 7:58 PM PDT
Civil Twilight 6:06 AM PDT 8:28 PM PDT
Nautical Twilight 5:31 AM PDT 9:03 PM PDT
Astronomical Twilight 4:53 AM PDT 9:41 PM PDT
Moon 9:40 AM PDT 9:18 PM PDT
Length of Visible Light 14h 21m
Length of Day
13h 22m
Tomorrow will be 2m 48s shorter.
Waxing Crescent, 9% of the Moon is Illuminated
Today
Waxing Crescent
Sep 2
First Quarter
Sep 8
Full
Sep 15
Last Quarter
Sep 24
New

Today's Extremes

State Highs State Lows

Community

WunderPhotos

Upload Photos

1,748,014 photos uploaded!

Nearby

Snow Depth

Station Depth Elevation
Holland Meadows 0 in 4900 ft
Bigelow Camp 0 in 5120 ft
Diamond Lake 0 in 5315 ft
Annie Springs 0 in 6020 ft
Salt Creek Falls 0 in 4000 ft

Earthquake Activity

City Distance Mag. Time & Date
Waldport, Oregon 107 miles 2.5 10:59 PM PDT
2014-08-25
Minimum magnitude displayed is 2.5.

Coastal Water Temperatures

Place Temperature
Port Orford, OR 55.0 °F
Charleston, OR 55.0 °F
South Beach, OR 55.9 °F

Nearby Weather Stations